sensor_id;sensor_type;location;lat;lon;timestamp;temperature;humidity
774;DHT22;370;48.810;9.150;2023-09-19T00:00:19;17.50;26.70
774;DHT22;370;48.810;9.150;2023-09-19T00:02:52;17.60;25.60
774;DHT22;370;48.810;9.150;2023-09-19T00:05:19;17.60;25.10
774;DHT22;370;48.810;9.150;2023-09-19T00:07:49;17.60;23.80
774;DHT22;370;48.810;9.150;2023-09-19T00:10:17;17.70;24.20
774;DHT22;370;48.810;9.150;2023-09-19T00:12:44;17.70;21.40
774;DHT22;370;48.810;9.150;2023-09-19T00:15:11;17.80;20.70
774;DHT22;370;48.810;9.150;2023-09-19T00:17:38;17.80;19.80
774;DHT22;370;48.810;9.150;2023-09-19T00:20:08;17.80;19.20
774;DHT22;370;48.810;9.150;2023-09-19T00:22:39;17.90;19.70
774;DHT22;370;48.810;9.150;2023-09-19T00:25:06;17.80;19.10
774;DHT22;370;48.810;9.150;2023-09-19T00:27:33;17.90;19.20
774;DHT22;370;48.810;9.150;2023-09-19T00:30:00;17.90;19.20
774;DHT22;370;48.810;9.150;2023-09-19T00:32:29;17.90;19.20
774;DHT22;370;48.810;9.150;2023-09-19T00:34:57;17.90;19.20
774;DHT22;370;48.810;9.150;2023-09-19T00:37:25;17.90;19.20
774;DHT22;370;48.810;9.150;2023-09-19T00:39:52;18.00;19.20
774;DHT22;370;48.810;9.150;2023-09-19T00:42:19;17.90;19.20
774;DHT22;370;48.810;9.150;2023-09-19T00:44:47;17.90;19.20
774;DHT22;370;48.810;9.150;2023-09-19T00:47:16;17.90;19.20
774;DHT22;370;48.810;9.150;2023-09-19T00:49:44;17.90;19.20
774;DHT22;370;48.810;9.150;2023-09-19T00:52:14;17.90;19.20
774;DHT22;370;48.810;9.150;2023-09-19T00:54:46;17.90;20.00
774;DHT22;370;48.810;9.150;2023-09-19T00:57:13;17.80;20.30
774;DHT22;370;48.810;9.150;2023-09-19T00:59:41;17.90;20.00
774;DHT22;370;48.810;9.150;2023-09-19T01:02:08;17.80;20.40
774;DHT22;370;48.810;9.150;2023-09-19T01:04:36;17.80;20.80
774;DHT22;370;48.810;9.150;2023-09-19T01:07:03;17.80;20.30
774;DHT22;370;48.810;9.150;2023-09-19T01:09:30;17.80;20.30
774;DHT22;370;48.810;9.150;2023-09-19T01:12:02;17.80;20.40
774;DHT22;370;48.810;9.150;2023-09-19T01:14:34;17.80;20.80
774;DHT22;370;48.810;9.150;2023-09-19T01:17:09;17.70;21.20
774;DHT22;370;48.810;9.150;2023-09-19T01:20:20;17.80;20.90
774;DHT22;370;48.810;9.150;2023-09-19T01:22:56;17.80;21.10
774;DHT22;370;48.810;9.150;2023-09-19T01:28:30;17.80;19.30
774;DHT22;370;48.810;9.150;2023-09-19T01:31:04;17.70;20.00
774;DHT22;370;48.810;9.150;2023-09-19T01:33:55;17.80;19.90
774;DHT22;370;48.810;9.150;2023-09-19T01:36:30;17.80;19.10
774;DHT22;370;48.810;9.150;2023-09-19T01:38:59;17.80;19.10
774;DHT22;370;48.810;9.150;2023-09-19T01:41:39;17.80;18.20
774;DHT22;370;48.810;9.150;2023-09-19T01:44:15;17.80;18.00
774;DHT22;370;48.810;9.150;2023-09-19T01:46:45;17.80;18.20
774;DHT22;370;48.810;9.150;2023-09-19T01:49:22;17.80;17.90
774;DHT22;370;48.810;9.150;2023-09-19T01:51:59;17.80;17.30
774;DHT22;370;48.810;9.150;2023-09-19T01:54:31;17.80;17.00
774;DHT22;370;48.810;9.150;2023-09-19T01:57:04;17.90;16.30
774;DHT22;370;48.810;9.150;2023-09-19T01:59:40;17.80;16.80
774;DHT22;370;48.810;9.150;2023-09-19T02:02:10;17.80;16.20
774;DHT22;370;48.810;9.150;2023-09-19T02:04:36;17.80;15.70
774;DHT22;370;48.810;9.150;2023-09-19T02:07:04;17.80;15.50
774;DHT22;370;48.810;9.150;2023-09-19T02:09:33;17.80;15.70
774;DHT22;370;48.810;9.150;2023-09-19T02:12:00;17.80;15.30
774;DHT22;370;48.810;9.150;2023-09-19T02:14:30;17.60;16.30
774;DHT22;370;48.810;9.150;2023-09-19T02:16:57;17.60;16.60
774;DHT22;370;48.810;9.150;2023-09-19T02:19:26;17.50;16.80
774;DHT22;370;48.810;9.150;2023-09-19T02:21:53;17.50;17.10
774;DHT22;370;48.810;9.150;2023-09-19T02:24:20;17.50;16.70
774;DHT22;370;48.810;9.150;2023-09-19T02:26:46;17.40;17.80
774;DHT22;370;48.810;9.150;2023-09-19T02:29:13;17.30;18.20
774;DHT22;370;48.810;9.150;2023-09-19T02:31:40;17.30;18.80
774;DHT22;370;48.810;9.150;2023-09-19T02:34:07;17.30;18.80
774;DHT22;370;48.810;9.150;2023-09-19T02:36:35;17.20;18.70
774;DHT22;370;48.810;9.150;2023-09-19T02:39:03;17.20;18.70
774;DHT22;370;48.810;9.150;2023-09-19T02:41:31;17.20;18.70
774;DHT22;370;48.810;9.150;2023-09-19T02:43:58;17.10;18.70
774;DHT22;370;48.810;9.150;2023-09-19T02:46:27;17.10;19.60
774;DHT22;370;48.810;9.150;2023-09-19T02:48:54;17.10;19.90
774;DHT22;370;48.810;9.150;2023-09-19T02:51:21;17.00;20.70
774;DHT22;370;48.810;9.150;2023-09-19T02:53:49;16.90;21.80
774;DHT22;370;48.810;9.150;2023-09-19T02:56:17;16.90;22.10
774;DHT22;370;48.810;9.150;2023-09-19T02:58:44;17.00;22.10
774;DHT22;370;48.810;9.150;2023-09-19T03:01:11;17.00;22.20
774;DHT22;370;48.810;9.150;2023-09-19T03:03:38;17.00;21.50
774;DHT22;370;48.810;9.150;2023-09-19T03:06:06;17.10;20.90
774;DHT22;370;48.810;9.150;2023-09-19T03:08:34;17.20;20.50
774;DHT22;370;48.810;9.150;2023-09-19T03:11:04;17.20;21.20
774;DHT22;370;48.810;9.150;2023-09-19T03:13:33;17.30;19.10
774;DHT22;370;48.810;9.150;2023-09-19T03:16:02;17.40;19.80
774;DHT22;370;48.810;9.150;2023-09-19T03:18:31;17.50;18.60
774;DHT22;370;48.810;9.150;2023-09-19T03:20:58;17.50;18.00
774;DHT22;370;48.810;9.150;2023-09-19T03:23:26;17.50;18.10
774;DHT22;370;48.810;9.150;2023-09-19T03:25:53;17.50;18.00
774;DHT22;370;48.810;9.150;2023-09-19T03:28:23;17.50;18.00
774;DHT22;370;48.810;9.150;2023-09-19T03:30:58;17.50;18.10
774;DHT22;370;48.810;9.150;2023-09-19T03:33:26;17.50;18.90
774;DHT22;370;48.810;9.150;2023-09-19T03:35:53;17.50;18.90
774;DHT22;370;48.810;9.150;2023-09-19T03:38:20;17.50;18.90
774;DHT22;370;48.810;9.150;2023-09-19T03:40:47;17.50;18.90
774;DHT22;370;48.810;9.150;2023-09-19T03:43:14;17.50;18.90
774;DHT22;370;48.810;9.150;2023-09-19T03:45:42;17.60;19.00
774;DHT22;370;48.810;9.150;2023-09-19T03:48:09;17.70;18.20
774;DHT22;370;48.810;9.150;2023-09-19T03:50:36;17.70;17.80
774;DHT22;370;48.810;9.150;2023-09-19T03:53:03;17.80;17.00
774;DHT22;370;48.810;9.150;2023-09-19T03:55:30;17.90;16.30
774;DHT22;370;48.810;9.150;2023-09-19T03:57:56;17.90;14.80
774;DHT22;370;48.810;9.150;2023-09-19T04:00:23;18.00;14.90
774;DHT22;370;48.810;9.150;2023-09-19T04:02:53;18.10;14.60
774;DHT22;370;48.810;9.150;2023-09-19T04:05:21;18.10;14.80
774;DHT22;370;48.810;9.150;2023-09-19T04:07:48;18.10;16.20
774;DHT22;370;48.810;9.150;2023-09-19T04:10:16;18.00;19.20
774;DHT22;370;48.810;9.150;2023-09-19T04:12:50;18.00;18.50
774;DHT22;370;48.810;9.150;2023-09-19T04:15:18;17.90;19.80
774;DHT22;370;48.810;9.150;2023-09-19T04:17:45;17.80;23.00
774;DHT22;370;48.810;9.150;2023-09-19T04:20:13;17.70;23.50
774;DHT22;370;48.810;9.150;2023-09-19T04:22:40;17.50;26.40
774;DHT22;370;48.810;9.150;2023-09-19T04:25:07;17.50;24.40
774;DHT22;370;48.810;9.150;2023-09-19T04:27:34;17.50;26.70
774;DHT22;370;48.810;9.150;2023-09-19T04:30:01;17.50;27.40
774;DHT22;370;48.810;9.150;2023-09-19T04:32:35;17.50;28.90
774;DHT22;370;48.810;9.150;2023-09-19T04:35:04;17.50;29.20
774;DHT22;370;48.810;9.150;2023-09-19T04:37:33;17.50;29.80
774;DHT22;370;48.810;9.150;2023-09-19T04:40:00;17.50;27.40
774;DHT22;370;48.810;9.150;2023-09-19T04:42:30;17.50;27.60
774;DHT22;370;48.810;9.150;2023-09-19T04:44:57;17.50;30.10
774;DHT22;370;48.810;9.150;2023-09-19T04:47:25;17.60;30.00
774;DHT22;370;48.810;9.150;2023-09-19T04:49:52;17.60;30.50
774;DHT22;370;48.810;9.150;2023-09-19T04:52:18;17.60;32.20
774;DHT22;370;48.810;9.150;2023-09-19T04:54:47;17.60;30.90
774;DHT22;370;48.810;9.150;2023-09-19T04:57:14;17.70;31.30
774;DHT22;370;48.810;9.150;2023-09-19T04:59:41;17.80;31.40
774;DHT22;370;48.810;9.150;2023-09-19T05:02:08;17.80;32.60
774;DHT22;370;48.810;9.150;2023-09-19T05:04:35;17.70;34.10
774;DHT22;370;48.810;9.150;2023-09-19T05:07:03;17.70;37.20
774;DHT22;370;48.810;9.150;2023-09-19T05:09:29;17.60;41.70
774;DHT22;370;48.810;9.150;2023-09-19T05:12:00;17.60;40.70
774;DHT22;370;48.810;9.150;2023-09-19T05:14:26;17.50;41.80
774;DHT22;370;48.810;9.150;2023-09-19T05:16:53;17.40;44.60
774;DHT22;370;48.810;9.150;2023-09-19T05:19:20;17.40;45.30
774;DHT22;370;48.810;9.150;2023-09-19T05:21:47;17.30;45.10
774;DHT22;370;48.810;9.150;2023-09-19T05:24:14;17.30;45.60
774;DHT22;370;48.810;9.150;2023-09-19T05:26:42;17.30;46.20
774;DHT22;370;48.810;9.150;2023-09-19T05:29:11;17.20;47.90
774;DHT22;370;48.810;9.150;2023-09-19T05:31:38;17.20;49.50
774;DHT22;370;48.810;9.150;2023-09-19T05:34:06;17.30;47.10
774;DHT22;370;48.810;9.150;2023-09-19T05:36:33;17.30;47.80
774;DHT22;370;48.810;9.150;2023-09-19T05:39:00;17.30;52.00
774;DHT22;370;48.810;9.150;2023-09-19T05:41:27;17.30;50.80
774;DHT22;370;48.810;9.150;2023-09-19T05:43:53;17.20;53.30
774;DHT22;370;48.810;9.150;2023-09-19T05:46:22;17.20;53.40
774;DHT22;370;48.810;9.150;2023-09-19T05:48:49;17.10;56.30
774;DHT22;370;48.810;9.150;2023-09-19T05:51:15;17.10;56.90
774;DHT22;370;48.810;9.150;2023-09-19T05:53:43;17.10;57.90
774;DHT22;370;48.810;9.150;2023-09-19T05:56:13;17.00;59.60
774;DHT22;370;48.810;9.150;2023-09-19T05:58:40;16.90;59.40
774;DHT22;370;48.810;9.150;2023-09-19T06:01:09;16.90;57.30
774;DHT22;370;48.810;9.150;2023-09-19T06:03:37;16.80;51.80
774;DHT22;370;48.810;9.150;2023-09-19T06:06:04;16.70;41.50
774;DHT22;370;48.810;9.150;2023-09-19T06:08:31;16.60;41.40
774;DHT22;370;48.810;9.150;2023-09-19T06:10:59;16.50;43.20
774;DHT22;370;48.810;9.150;2023-09-19T06:13:28;16.30;47.90
774;DHT22;370;48.810;9.150;2023-09-19T06:15:54;16.20;46.10
774;DHT22;370;48.810;9.150;2023-09-19T06:18:22;16.20;51.40
774;DHT22;370;48.810;9.150;2023-09-19T06:20:53;16.20;54.60
774;DHT22;370;48.810;9.150;2023-09-19T06:23:20;16.30;52.90
774;DHT22;370;48.810;9.150;2023-09-19T06:25:48;16.30;49.60
774;DHT22;370;48.810;9.150;2023-09-19T06:28:15;16.30;52.60
774;DHT22;370;48.810;9.150;2023-09-19T06:30:45;16.40;50.50
774;DHT22;370;48.810;9.150;2023-09-19T06:33:13;16.40;46.30
774;DHT22;370;48.810;9.150;2023-09-19T06:35:40;16.40;49.40
774;DHT22;370;48.810;9.150;2023-09-19T06:38:08;16.50;49.10
774;DHT22;370;48.810;9.150;2023-09-19T06:40:36;16.70;45.30
774;DHT22;370;48.810;9.150;2023-09-19T06:43:05;16.80;44.90
774;DHT22;370;48.810;9.150;2023-09-19T06:45:32;16.90;44.00
774;DHT22;370;48.810;9.150;2023-09-19T06:47:58;17.00;41.70
774;DHT22;370;48.810;9.150;2023-09-19T06:50:26;17.10;41.40
774;DHT22;370;48.810;9.150;2023-09-19T06:52:54;17.30;40.50
774;DHT22;370;48.810;9.150;2023-09-19T06:55:24;17.30;36.90
774;DHT22;370;48.810;9.150;2023-09-19T06:57:53;17.40;35.40
774;DHT22;370;48.810;9.150;2023-09-19T07:00:20;17.60;35.70
774;DHT22;370;48.810;9.150;2023-09-19T07:02:55;18.00;26.90
774;DHT22;370;48.810;9.150;2023-09-19T07:05:22;18.40;27.00
774;DHT22;370;48.810;9.150;2023-09-19T07:07:49;18.80;19.80
774;DHT22;370;48.810;9.150;2023-09-19T07:10:16;19.50;21.70
774;DHT22;370;48.810;9.150;2023-09-19T07:12:45;20.20;10.10
774;DHT22;370;48.810;9.150;2023-09-19T07:15:12;20.70;5.00
774;DHT22;370;48.810;9.150;2023-09-19T07:17:39;21.00;1.50
774;DHT22;370;48.810;9.150;2023-09-19T07:20:06;21.00;1.00
774;DHT22;370;48.810;9.150;2023-09-19T07:22:33;21.20;1.00
774;DHT22;370;48.810;9.150;2023-09-19T07:25:01;21.20;1.00
774;DHT22;370;48.810;9.150;2023-09-19T07:27:29;21.20;1.00
774;DHT22;370;48.810;9.150;2023-09-19T07:29:57;21.20;1.00
774;DHT22;370;48.810;9.150;2023-09-19T07:32:24;21.40;1.00
774;DHT22;370;48.810;9.150;2023-09-19T07:34:51;21.50;1.00
774;DHT22;370;48.810;9.150;2023-09-19T07:37:21;21.60;1.00
774;DHT22;370;48.810;9.150;2023-09-19T07:39:49;21.80;1.00
774;DHT22;370;48.810;9.150;2023-09-19T07:42:16;22.00;1.00
774;DHT22;370;48.810;9.150;2023-09-19T07:44:43;22.40;1.00
774;DHT22;370;48.810;9.150;2023-09-19T07:47:14;22.70;1.00
774;DHT22;370;48.810;9.150;2023-09-19T07:49:40;23.30;1.00
774;DHT22;370;48.810;9.150;2023-09-19T07:52:08;23.80;1.00
774;DHT22;370;48.810;9.150;2023-09-19T07:54:35;24.10;1.00
774;DHT22;370;48.810;9.150;2023-09-19T07:57:02;24.10;1.00
774;DHT22;370;48.810;9.150;2023-09-19T07:59:29;24.30;1.00
774;DHT22;370;48.810;9.150;2023-09-19T08:01:56;24.60;1.00
774;DHT22;370;48.810;9.150;2023-09-19T08:04:24;24.90;1.00
774;DHT22;370;48.810;9.150;2023-09-19T08:06:52;25.30;1.00
774;DHT22;370;48.810;9.150;2023-09-19T08:09:21;26.00;1.00
774;DHT22;370;48.810;9.150;2023-09-19T08:11:48;26.90;1.00
774;DHT22;370;48.810;9.150;2023-09-19T08:14:16;27.90;1.00
774;DHT22;370;48.810;9.150;2023-09-19T08:16:43;28.90;1.00
774;DHT22;370;48.810;9.150;2023-09-19T08:19:10;30.30;1.00
774;DHT22;370;48.810;9.150;2023-09-19T08:21:38;31.10;1.00
774;DHT22;370;48.810;9.150;2023-09-19T08:24:05;31.70;1.00
774;DHT22;370;48.810;9.150;2023-09-19T08:26:32;31.80;1.00
774;DHT22;370;48.810;9.150;2023-09-19T08:28:59;31.50;1.00
774;DHT22;370;48.810;9.150;2023-09-19T08:31:30;31.50;1.00
774;DHT22;370;48.810;9.150;2023-09-19T08:33:57;31.90;1.00
774;DHT22;370;48.810;9.150;2023-09-19T08:36:23;32.60;1.00
774;DHT22;370;48.810;9.150;2023-09-19T08:38:51;32.50;1.00
774;DHT22;370;48.810;9.150;2023-09-19T08:41:18;32.70;1.00
774;DHT22;370;48.810;9.150;2023-09-19T08:43:45;33.10;1.00
774;DHT22;370;48.810;9.150;2023-09-19T08:46:15;33.50;1.00
774;DHT22;370;48.810;9.150;2023-09-19T08:48:45;33.80;1.00
774;DHT22;370;48.810;9.150;2023-09-19T08:51:18;32.90;1.00
774;DHT22;370;48.810;9.150;2023-09-19T08:54:03;33.20;1.00
774;DHT22;370;48.810;9.150;2023-09-19T08:56:30;33.30;1.00
774;DHT22;370;48.810;9.150;2023-09-19T08:59:01;33.50;1.00
774;DHT22;370;48.810;9.150;2023-09-19T09:01:29;33.80;1.00
774;DHT22;370;48.810;9.150;2023-09-19T09:03:58;34.30;1.00
774;DHT22;370;48.810;9.150;2023-09-19T09:06:26;34.70;1.00
774;DHT22;370;48.810;9.150;2023-09-19T09:08:55;35.20;1.00
774;DHT22;370;48.810;9.150;2023-09-19T09:11:22;35.60;1.00
774;DHT22;370;48.810;9.150;2023-09-19T09:13:50;35.80;1.00
774;DHT22;370;48.810;9.150;2023-09-19T09:16:18;36.50;1.00
774;DHT22;370;48.810;9.150;2023-09-19T09:18:45;36.00;1.00
774;DHT22;370;48.810;9.150;2023-09-19T09:21:12;35.00;1.00
774;DHT22;370;48.810;9.150;2023-09-19T09:23:41;33.20;1.00
774;DHT22;370;48.810;9.150;2023-09-19T09:26:09;32.10;1.00
774;DHT22;370;48.810;9.150;2023-09-19T09:28:44;32.00;1.00
774;DHT22;370;48.810;9.150;2023-09-19T09:31:22;31.60;1.00
774;DHT22;370;48.810;9.150;2023-09-19T09:33:53;31.90;1.00
774;DHT22;370;48.810;9.150;2023-09-19T09:36:33;33.10;1.00
774;DHT22;370;48.810;9.150;2023-09-19T09:39:02;34.90;1.00
774;DHT22;370;48.810;9.150;2023-09-19T09:41:42;35.50;1.00
774;DHT22;370;48.810;9.150;2023-09-19T09:44:13;35.80;1.00
774;DHT22;370;48.810;9.150;2023-09-19T09:46:43;36.10;1.00
774;DHT22;370;48.810;9.150;2023-09-19T09:49:47;37.10;1.00
774;DHT22;370;48.810;9.150;2023-09-19T09:52:20;37.40;1.00
774;DHT22;370;48.810;9.150;2023-09-19T09:54:59;36.90;1.00
774;DHT22;370;48.810;9.150;2023-09-19T09:57:28;37.30;1.00
774;DHT22;370;48.810;9.150;2023-09-19T09:59:57;35.80;1.00
774;DHT22;370;48.810;9.150;2023-09-19T10:02:42;34.10;1.00
774;DHT22;370;48.810;9.150;2023-09-19T10:05:34;32.70;1.00
774;DHT22;370;48.810;9.150;2023-09-19T10:13:09;32.80;1.00
774;DHT22;370;48.810;9.150;2023-09-19T10:25:25;35.40;1.00
774;DHT22;370;48.810;9.150;2023-09-19T10:27:54;36.20;1.00
774;DHT22;370;48.810;9.150;2023-09-19T10:30:23;37.90;1.00
774;DHT22;370;48.810;9.150;2023-09-19T10:32:58;38.90;1.00
774;DHT22;370;48.810;9.150;2023-09-19T10:41:00;41.70;1.00
774;DHT22;370;48.810;9.150;2023-09-19T10:43:30;41.80;1.00
774;DHT22;370;48.810;9.150;2023-09-19T10:46:02;41.90;1.00
774;DHT22;370;48.810;9.150;2023-09-19T10:48:29;41.70;1.00
774;DHT22;370;48.810;9.150;2023-09-19T10:51:02;42.20;1.00
774;DHT22;370;48.810;9.150;2023-09-19T10:53:41;42.20;1.00
774;DHT22;370;48.810;9.150;2023-09-19T10:56:18;41.60;1.00
774;DHT22;370;48.810;9.150;2023-09-19T10:58:45;41.50;1.00
774;DHT22;370;48.810;9.150;2023-09-19T11:01:13;41.30;1.00
774;DHT22;370;48.810;9.150;2023-09-19T11:03:41;41.60;1.00
774;DHT22;370;48.810;9.150;2023-09-19T11:06:12;41.90;1.00
774;DHT22;370;48.810;9.150;2023-09-19T11:08:56;41.80;1.00
774;DHT22;370;48.810;9.150;2023-09-19T11:11:46;40.80;1.00
774;DHT22;370;48.810;9.150;2023-09-19T11:14:38;40.10;1.00
774;DHT22;370;48.810;9.150;2023-09-19T11:17:30;40.70;1.00
774;DHT22;370;48.810;9.150;2023-09-19T11:20:19;40.90;1.00
774;DHT22;370;48.810;9.150;2023-09-19T11:23:20;42.00;1.00
774;DHT22;370;48.810;9.150;2023-09-19T11:25:50;43.40;1.00
774;DHT22;370;48.810;9.150;2023-09-19T11:28:30;43.70;1.00
774;DHT22;370;48.810;9.150;2023-09-19T11:30:57;43.80;1.00
774;DHT22;370;48.810;9.150;2023-09-19T11:33:25;44.20;1.00
774;DHT22;370;48.810;9.150;2023-09-19T11:36:03;44.40;1.00
774;DHT22;370;48.810;9.150;2023-09-19T11:38:58;44.10;1.00
774;DHT22;370;48.810;9.150;2023-09-19T11:41:39;43.30;1.00
774;DHT22;370;48.810;9.150;2023-09-19T11:44:32;43.30;1.00
774;DHT22;370;48.810;9.150;2023-09-19T11:47:01;42.90;1.00
774;DHT22;370;48.810;9.150;2023-09-19T11:49:30;42.60;1.00
774;DHT22;370;48.810;9.150;2023-09-19T11:51:59;43.80;1.00
774;DHT22;370;48.810;9.150;2023-09-19T11:54:30;43.70;1.00
774;DHT22;370;48.810;9.150;2023-09-19T11:56:58;43.30;1.00
774;DHT22;370;48.810;9.150;2023-09-19T11:59:27;43.40;1.00
774;DHT22;370;48.810;9.150;2023-09-19T12:01:57;43.00;1.00
774;DHT22;370;48.810;9.150;2023-09-19T12:04:38;43.10;1.00
774;DHT22;370;48.810;9.150;2023-09-19T12:07:07;42.50;1.00
774;DHT22;370;48.810;9.150;2023-09-19T12:09:39;41.70;1.00
774;DHT22;370;48.810;9.150;2023-09-19T12:12:09;42.40;1.00
774;DHT22;370;48.810;9.150;2023-09-19T12:14:38;43.50;1.00
774;DHT22;370;48.810;9.150;2023-09-19T12:17:08;43.70;1.00
774;DHT22;370;48.810;9.150;2023-09-19T12:19:35;44.00;1.00
774;DHT22;370;48.810;9.150;2023-09-19T12:22:03;43.10;1.00
774;DHT22;370;48.810;9.150;2023-09-19T12:24:31;42.70;1.00
774;DHT22;370;48.810;9.150;2023-09-19T12:27:02;43.20;1.00
774;DHT22;370;48.810;9.150;2023-09-19T12:29:31;44.30;1.00
774;DHT22;370;48.810;9.150;2023-09-19T12:31:59;44.20;1.00
774;DHT22;370;48.810;9.150;2023-09-19T12:34:31;43.40;1.00
774;DHT22;370;48.810;9.150;2023-09-19T12:37:10;43.50;1.00
774;DHT22;370;48.810;9.150;2023-09-19T12:39:48;43.30;1.00
774;DHT22;370;48.810;9.150;2023-09-19T12:42:17;43.10;1.00
774;DHT22;370;48.810;9.150;2023-09-19T12:44:45;44.00;1.00
774;DHT22;370;48.810;9.150;2023-09-19T12:47:14;42.00;1.00
774;DHT22;370;48.810;9.150;2023-09-19T12:50:09;38.50;1.00
774;DHT22;370;48.810;9.150;2023-09-19T12:52:41;35.40;1.00
774;DHT22;370;48.810;9.150;2023-09-19T12:55:19;33.00;1.00
774;DHT22;370;48.810;9.150;2023-09-19T12:57:58;32.10;1.00
774;DHT22;370;48.810;9.150;2023-09-19T13:00:32;31.50;1.00
774;DHT22;370;48.810;9.150;2023-09-19T13:03:13;31.30;1.00
774;DHT22;370;48.810;9.150;2023-09-19T13:05:49;30.60;1.00
774;DHT22;370;48.810;9.150;2023-09-19T13:08:18;29.70;1.00
774;DHT22;370;48.810;9.150;2023-09-19T13:11:06;28.80;1.00
774;DHT22;370;48.810;9.150;2023-09-19T13:13:39;28.90;1.00
774;DHT22;370;48.810;9.150;2023-09-19T13:16:06;31.10;1.00
774;DHT22;370;48.810;9.150;2023-09-19T13:18:42;30.90;1.00
774;DHT22;370;48.810;9.150;2023-09-19T13:21:12;32.00;1.00
774;DHT22;370;48.810;9.150;2023-09-19T13:23:49;31.40;1.00
774;DHT22;370;48.810;9.150;2023-09-19T13:26:15;30.50;1.00
774;DHT22;370;48.810;9.150;2023-09-19T13:28:42;31.30;1.00
774;DHT22;370;48.810;9.150;2023-09-19T13:31:09;32.20;1.00
774;DHT22;370;48.810;9.150;2023-09-19T13:33:42;31.60;1.00
774;DHT22;370;48.810;9.150;2023-09-19T13:36:09;30.90;1.00
774;DHT22;370;48.810;9.150;2023-09-19T13:38:39;30.40;1.00
774;DHT22;370;48.810;9.150;2023-09-19T13:41:08;30.00;1.00
774;DHT22;370;48.810;9.150;2023-09-19T13:43:35;29.50;1.00
774;DHT22;370;48.810;9.150;2023-09-19T13:46:02;29.00;1.00
774;DHT22;370;48.810;9.150;2023-09-19T13:48:29;28.50;1.00
774;DHT22;370;48.810;9.150;2023-09-19T13:50:56;29.20;1.00
774;DHT22;370;48.810;9.150;2023-09-19T13:53:23;30.60;1.00
774;DHT22;370;48.810;9.150;2023-09-19T13:55:53;30.10;1.00
774;DHT22;370;48.810;9.150;2023-09-19T13:58:19;29.30;1.00
774;DHT22;370;48.810;9.150;2023-09-19T14:00:46;29.70;1.00
774;DHT22;370;48.810;9.150;2023-09-19T14:03:13;29.50;1.00
774;DHT22;370;48.810;9.150;2023-09-19T14:05:40;29.10;1.00
774;DHT22;370;48.810;9.150;2023-09-19T14:08:07;29.80;1.00
774;DHT22;370;48.810;9.150;2023-09-19T14:10:34;31.20;1.00
774;DHT22;370;48.810;9.150;2023-09-19T14:13:03;32.70;1.00
774;DHT22;370;48.810;9.150;2023-09-19T14:15:30;33.30;1.00
774;DHT22;370;48.810;9.150;2023-09-19T14:17:58;32.40;1.00
774;DHT22;370;48.810;9.150;2023-09-19T14:20:27;32.80;1.00
774;DHT22;370;48.810;9.150;2023-09-19T14:22:54;32.80;1.00
774;DHT22;370;48.810;9.150;2023-09-19T14:25:21;32.50;1.00
774;DHT22;370;48.810;9.150;2023-09-19T14:27:48;33.00;1.00
774;DHT22;370;48.810;9.150;2023-09-19T14:30:16;33.70;1.00
774;DHT22;370;48.810;9.150;2023-09-19T14:32:46;33.40;1.00
774;DHT22;370;48.810;9.150;2023-09-19T14:35:13;32.60;1.00
774;DHT22;370;48.810;9.150;2023-09-19T14:37:40;32.10;1.00
774;DHT22;370;48.810;9.150;2023-09-19T14:40:08;31.60;1.00
774;DHT22;370;48.810;9.150;2023-09-19T14:42:38;31.90;1.00
774;DHT22;370;48.810;9.150;2023-09-19T14:45:06;32.40;1.00
774;DHT22;370;48.810;9.150;2023-09-19T14:47:34;33.20;1.00
774;DHT22;370;48.810;9.150;2023-09-19T14:50:02;33.70;1.00
774;DHT22;370;48.810;9.150;2023-09-19T14:52:32;33.80;1.00
774;DHT22;370;48.810;9.150;2023-09-19T14:54:59;34.60;1.00
774;DHT22;370;48.810;9.150;2023-09-19T14:57:26;34.20;1.00
774;DHT22;370;48.810;9.150;2023-09-19T14:59:52;34.20;1.00
774;DHT22;370;48.810;9.150;2023-09-19T15:02:20;33.70;1.00
774;DHT22;370;48.810;9.150;2023-09-19T15:04:48;32.40;1.00
774;DHT22;370;48.810;9.150;2023-09-19T15:07:16;31.60;1.00
774;DHT22;370;48.810;9.150;2023-09-19T15:09:43;31.00;1.00
774;DHT22;370;48.810;9.150;2023-09-19T15:12:11;30.30;1.00
774;DHT22;370;48.810;9.150;2023-09-19T15:14:39;30.20;1.00
774;DHT22;370;48.810;9.150;2023-09-19T15:17:06;29.80;1.00
774;DHT22;370;48.810;9.150;2023-09-19T15:19:33;29.50;1.00
774;DHT22;370;48.810;9.150;2023-09-19T15:22:02;29.60;1.00
774;DHT22;370;48.810;9.150;2023-09-19T15:24:29;29.70;1.00
774;DHT22;370;48.810;9.150;2023-09-19T15:26:56;29.60;1.00
774;DHT22;370;48.810;9.150;2023-09-19T15:29:23;29.40;1.00
774;DHT22;370;48.810;9.150;2023-09-19T15:31:50;28.90;1.00
774;DHT22;370;48.810;9.150;2023-09-19T15:34:17;29.00;1.00
774;DHT22;370;48.810;9.150;2023-09-19T15:36:44;29.60;1.00
774;DHT22;370;48.810;9.150;2023-09-19T15:39:13;30.30;1.00
774;DHT22;370;48.810;9.150;2023-09-19T15:41:45;30.40;1.00
774;DHT22;370;48.810;9.150;2023-09-19T15:44:15;30.20;1.00
774;DHT22;370;48.810;9.150;2023-09-19T15:46:43;29.40;1.00
774;DHT22;370;48.810;9.150;2023-09-19T15:49:10;28.40;1.00
774;DHT22;370;48.810;9.150;2023-09-19T15:51:38;27.70;1.00
774;DHT22;370;48.810;9.150;2023-09-19T15:54:08;27.10;1.00
774;DHT22;370;48.810;9.150;2023-09-19T15:56:38;26.80;1.00
774;DHT22;370;48.810;9.150;2023-09-19T15:59:07;26.70;1.00
774;DHT22;370;48.810;9.150;2023-09-19T16:01:36;26.60;1.00
774;DHT22;370;48.810;9.150;2023-09-19T16:04:04;26.40;1.00
774;DHT22;370;48.810;9.150;2023-09-19T16:06:35;26.20;1.00
774;DHT22;370;48.810;9.150;2023-09-19T16:09:02;26.00;1.00
774;DHT22;370;48.810;9.150;2023-09-19T16:11:31;25.90;1.00
774;DHT22;370;48.810;9.150;2023-09-19T16:14:00;25.80;1.00
774;DHT22;370;48.810;9.150;2023-09-19T16:16:28;25.70;1.00
774;DHT22;370;48.810;9.150;2023-09-19T16:18:59;25.60;1.00
774;DHT22;370;48.810;9.150;2023-09-19T16:21:27;25.30;1.00
774;DHT22;370;48.810;9.150;2023-09-19T16:23:55;25.20;1.00
774;DHT22;370;48.810;9.150;2023-09-19T16:26:24;25.10;1.00
774;DHT22;370;48.810;9.150;2023-09-19T16:28:53;25.00;1.00
774;DHT22;370;48.810;9.150;2023-09-19T16:31:23;25.00;1.00
774;DHT22;370;48.810;9.150;2023-09-19T16:33:50;25.00;1.00
774;DHT22;370;48.810;9.150;2023-09-19T16:36:18;24.90;1.00
774;DHT22;370;48.810;9.150;2023-09-19T16:38:47;24.80;1.00
774;DHT22;370;48.810;9.150;2023-09-19T16:41:15;24.50;1.00
774;DHT22;370;48.810;9.150;2023-09-19T16:43:42;24.30;1.00
774;DHT22;370;48.810;9.150;2023-09-19T16:46:11;24.00;1.00
774;DHT22;370;48.810;9.150;2023-09-19T16:48:40;23.80;1.00
774;DHT22;370;48.810;9.150;2023-09-19T16:51:08;23.60;1.00
774;DHT22;370;48.810;9.150;2023-09-19T16:53:36;23.30;1.00
774;DHT22;370;48.810;9.150;2023-09-19T16:56:05;23.10;1.00
774;DHT22;370;48.810;9.150;2023-09-19T16:58:35;23.00;1.00
774;DHT22;370;48.810;9.150;2023-09-19T17:01:25;22.80;1.00
774;DHT22;370;48.810;9.150;2023-09-19T17:04:18;22.70;1.00
774;DHT22;370;48.810;9.150;2023-09-19T17:06:45;22.60;1.00
774;DHT22;370;48.810;9.150;2023-09-19T17:09:13;22.50;1.00
774;DHT22;370;48.810;9.150;2023-09-19T17:11:41;22.40;1.00
774;DHT22;370;48.810;9.150;2023-09-19T17:14:08;22.20;1.00
774;DHT22;370;48.810;9.150;2023-09-19T17:16:36;22.10;1.00
774;DHT22;370;48.810;9.150;2023-09-19T17:19:03;22.00;1.00
774;DHT22;370;48.810;9.150;2023-09-19T17:21:33;21.80;1.00
774;DHT22;370;48.810;9.150;2023-09-19T17:24:00;21.70;1.00